Time;durP1;ratioP1;P1;durP2;ratioP2;P2;SDS_P1;SDS_P2;PMS_P1;PMS_P2;Temp;Humidity;BMP_temperature;BMP_pressure;BME280_temperature;BME280_humidity;BME280_pressure;Samples;Min_cycle;Max_cycle;Signal;HPM_P1;HPM_P2
2024/02/27 00:02:16;;;;;;;8.03;7.23;;;8.10;48.40;;;;;;4988877;28;20282;-63
2024/02/27 00:04:42;;;;;;;8.53;7.63;;;7.80;49.40;;;;;;4982910;28;20209;-63
2024/02/27 00:07:11;;;;;;;7.67;6.97;;;7.70;49.60;;;;;;4987160;28;20290;-63
2024/02/27 00:09:38;;;;;;;7.23;6.53;;;7.80;49.60;;;;;;4986185;28;20215;-64
2024/02/27 00:12:04;;;;;;;7.93;7.13;;;7.90;49.30;;;;;;4986203;28;20363;-64
2024/02/27 00:14:31;;;;;;;8.90;7.07;;;7.90;49.60;;;;;;4987433;28;20649;-64
2024/02/27 00:16:57;;;;;;;6.90;6.20;;;7.80;49.60;;;;;;4985914;28;20274;-63
2024/02/27 00:19:24;;;;;;;7.50;6.80;;;7.80;49.90;;;;;;4991551;28;20223;-64
2024/02/27 00:21:51;;;;;;;8.20;6.97;;;7.80;50.20;;;;;;4990873;28;20227;-63
2024/02/27 00:24:17;;;;;;;7.27;6.67;;;7.70;50.20;;;;;;4983007;28;20287;-63
2024/02/27 00:26:44;;;;;;;7.50;6.77;;;7.70;50.00;;;;;;4986946;28;20210;-63
2024/02/27 00:29:10;;;;;;;9.30;7.40;;;7.70;49.90;;;;;;4979264;28;20215;-63
2024/02/27 00:31:37;;;;;;;8.40;7.47;;;7.80;49.80;;;;;;4987323;28;20231;-64
2024/02/27 00:34:03;;;;;;;7.93;7.13;;;7.70;49.80;;;;;;4990906;28;20223;-64
2024/02/27 00:36:30;;;;;;;8.07;7.27;;;7.60;49.70;;;;;;4985091;28;20270;-64
2024/02/27 00:38:56;;;;;;;9.07;7.57;;;7.50;49.80;;;;;;4992321;28;20231;-64
2024/02/27 00:41:23;;;;;;;7.80;7.07;;;7.70;50.00;;;;;;4986582;28;20311;-63
2024/02/27 00:43:49;;;;;;;8.83;7.93;;;7.60;49.90;;;;;;4986748;28;20207;-61
2024/02/27 00:46:16;;;;;;;7.63;6.93;;;7.60;49.90;;;;;;4983426;28;20239;-63
2024/02/27 00:48:42;;;;;;;8.77;7.87;;;7.60;49.60;;;;;;4983420;28;20239;-63
2024/02/27 00:51:09;;;;;;;8.00;7.20;;;7.70;49.30;;;;;;4985663;28;20234;-63
2024/02/27 00:53:35;;;;;;;8.47;7.57;;;7.70;49.00;;;;;;5000984;28;20706;-64
2024/02/27 00:56:02;;;;;;;10.40;8.37;;;7.70;48.80;;;;;;4979786;28;20214;-63
2024/02/27 00:58:28;;;;;;;8.73;7.83;;;7.70;48.90;;;;;;4983108;28;20594;-64
2024/02/27 01:00:55;;;;;;;8.80;7.90;;;7.70;48.10;;;;;;4984188;28;20208;-64
2024/02/27 01:03:21;;;;;;;8.30;7.43;;;7.60;48.60;;;;;;4986719;28;20372;-63
2024/02/27 01:05:48;;;;;;;8.93;6.77;;;7.70;48.60;;;;;;4986331;28;20562;-63
2024/02/27 01:08:14;;;;;;;8.70;7.80;;;8.00;47.80;;;;;;4983275;28;20212;-63
2024/02/27 01:10:41;;;;;;;8.67;7.50;;;8.20;47.50;;;;;;4996739;28;20220;-64
2024/02/27 01:13:07;;;;;;;9.23;7.90;;;7.90;47.90;;;;;;4979910;28;20239;-64
2024/02/27 01:15:34;;;;;;;9.93;8.27;;;7.90;47.90;;;;;;4987953;28;20238;-63
2024/02/27 01:18:00;;;;;;;9.17;7.83;;;7.90;48.10;;;;;;4980334;28;20216;-63
2024/02/27 01:20:27;;;;;;;9.90;8.13;;;7.80;47.90;;;;;;4986117;28;20214;-63
2024/02/27 01:22:53;;;;;;;9.03;7.67;;;7.80;48.20;;;;;;4985467;28;20235;-63
2024/02/27 01:25:20;;;;;;;8.17;7.37;;;7.90;48.30;;;;;;4989052;28;20251;-63
2024/02/27 01:27:46;;;;;;;8.17;7.37;;;7.80;48.20;;;;;;4986201;28;20270;-63
2024/02/27 01:30:13;;;;;;;9.00;7.37;;;7.70;48.10;;;;;;4981904;28;20207;-63
2024/02/27 01:32:40;;;;;;;8.37;7.43;;;7.60;48.30;;;;;;4987579;28;20231;-63
2024/02/27 01:35:07;;;;;;;8.60;7.70;;;7.60;48.60;;;;;;4985520;28;20239;-64
2024/02/27 01:37:33;;;;;;;9.10;7.77;;;7.60;48.40;;;;;;4986293;28;20208;-64
2024/02/27 01:40:00;;;;;;;8.10;7.00;;;7.50;48.80;;;;;;4984289;28;20265;-64
2024/02/27 01:42:26;;;;;;;9.57;8.10;;;7.50;48.70;;;;;;4982187;28;20224;-63
2024/02/27 01:44:53;;;;;;;8.77;7.87;;;7.60;48.50;;;;;;4989086;28;20682;-62
2024/02/27 01:47:19;;;;;;;8.33;7.53;;;7.50;48.80;;;;;;4986720;28;20211;-64
2024/02/27 01:49:46;;;;;;;8.57;7.67;;;7.40;49.40;;;;;;4984052;28;20258;-64
2024/02/27 01:52:12;;;;;;;9.37;8.37;;;7.40;49.30;;;;;;4981816;28;20283;-61
2024/02/27 01:54:39;;;;;;;8.30;7.47;;;7.40;49.60;;;;;;4981923;28;20279;-63
2024/02/27 01:57:05;;;;;;;8.93;8.03;;;7.20;49.50;;;;;;4981404;28;20678;-64
2024/02/27 01:59:32;;;;;;;8.70;7.90;;;7.20;49.80;;;;;;4980114;28;20261;-63
2024/02/27 02:01:59;;;;;;;9.07;8.20;;;7.20;49.90;;;;;;4991426;28;20236;-63
2024/02/27 02:04:26;;;;;;;9.43;8.17;;;7.10;50.20;;;;;;4979336;28;20201;-65
2024/02/27 02:06:52;;;;;;;10.33;8.60;;;7.10;50.30;;;;;;4976440;28;20219;-62
2024/02/27 02:09:19;;;;;;;8.83;7.93;;;7.10;50.20;;;;;;4987815;28;20580;-63
2024/02/27 02:11:46;;;;;;;9.30;8.07;;;7.10;50.30;;;;;;4980850;28;20235;-62
2024/02/27 02:14:12;;;;;;;8.97;8.07;;;7.00;50.50;;;;;;4976897;28;20771;-64
2024/02/27 02:16:39;;;;;;;10.10;7.87;;;7.10;50.60;;;;;;4985210;28;20234;-63
2024/02/27 02:19:05;;;;;;;8.90;8.07;;;7.20;50.60;;;;;;4987816;28;20686;-63
2024/02/27 02:21:33;;;;;;;8.70;7.80;;;7.10;50.30;;;;;;4982090;28;20279;-63
2024/02/27 02:23:59;;;;;;;10.30;8.77;;;7.10;50.30;;;;;;4977604;28;20214;-63
2024/02/27 02:26:27;;;;;;;9.90;8.53;;;7.10;50.20;;;;;;4982644;28;20625;-63
2024/02/27 02:28:53;;;;;;;8.73;7.93;;;7.10;50.50;;;;;;4986124;28;20300;-63
2024/02/27 02:31:20;;;;;;;9.20;8.30;;;7.10;50.60;;;;;;4981680;28;20258;-63
2024/02/27 02:33:46;;;;;;;9.40;8.23;;;7.10;50.50;;;;;;4989858;28;20215;-63
2024/02/27 02:36:13;;;;;;;10.67;8.87;;;7.10;50.70;;;;;;4989550;28;20290;-64
2024/02/27 02:38:39;;;;;;;9.97;8.67;;;7.10;50.60;;;;;;4981619;28;20207;-64
2024/02/27 02:41:06;;;;;;;9.50;8.33;;;7.10;50.60;;;;;;4991300;28;20578;-63
2024/02/27 02:43:32;;;;;;;9.67;8.67;;;7.20;50.40;;;;;;4985249;28;20211;-63
2024/02/27 02:45:59;;;;;;;9.57;8.57;;;7.30;50.20;;;;;;4990960;28;20764;-63
2024/02/27 02:48:26;;;;;;;10.07;8.17;;;7.20;50.00;;;;;;4978939;28;20211;-64
2024/02/27 02:50:52;;;;;;;9.60;8.57;;;7.20;50.20;;;;;;4982871;28;20222;-64
2024/02/27 02:53:19;;;;;;;9.70;8.80;;;7.30;49.60;;;;;;4991046;28;20219;-63
2024/02/27 02:55:45;;;;;;;9.37;8.47;;;7.10;49.80;;;;;;4983775;28;20627;-63
2024/02/27 02:58:12;;;;;;;9.30;8.40;;;7.30;49.70;;;;;;4976506;28;20281;-63
2024/02/27 03:00:38;;;;;;;9.50;8.60;;;7.30;49.40;;;;;;4984852;28;20282;-63
2024/02/27 03:03:05;;;;;;;10.43;9.37;;;7.10;49.60;;;;;;4973896;28;20241;-64
2024/02/27 03:05:31;;;;;;;10.20;9.10;;;7.10;49.70;;;;;;4986940;28;20210;-64
2024/02/27 03:07:58;;;;;;;9.97;9.00;;;7.20;49.80;;;;;;4972258;28;20631;-64
2024/02/27 03:10:24;;;;;;;9.77;8.87;;;7.30;49.00;;;;;;4977114;28;20691;-63
2024/02/27 03:12:51;;;;;;;9.77;8.83;;;7.10;49.40;;;;;;4980284;28;20306;-64
2024/02/27 03:15:17;;;;;;;10.43;9.40;;;7.10;49.60;;;;;;4984951;28;20234;-63
2024/02/27 03:17:44;;;;;;;12.03;9.67;;;7.20;49.70;;;;;;4992407;28;20211;-63
2024/02/27 03:20:10;;;;;;;9.90;8.97;;;7.10;49.70;;;;;;4983803;28;20218;-62
2024/02/27 03:22:37;;;;;;;9.83;8.83;;;7.10;49.90;;;;;;4984310;28;20487;-63
2024/02/27 03:25:05;;;;;;;9.17;8.27;;;7.20;50.90;;;;;;4984281;28;20207;-63
2024/02/27 03:27:32;;;;;;;10.23;9.23;;;7.10;49.70;;;;;;4998041;28;20305;-64
2024/02/27 03:29:58;;;;;;;10.33;9.20;;;7.00;50.00;;;;;;4982538;28;20266;-63
2024/02/27 03:32:25;;;;;;;10.37;9.37;;;6.90;50.30;;;;;;4987600;28;20695;-64
2024/02/27 03:34:51;;;;;;;10.27;9.27;;;6.90;50.70;;;;;;4985279;28;20767;-63
2024/02/27 03:37:18;;;;;;;10.00;9.00;;;6.80;50.60;;;;;;4985137;28;20245;-64
2024/02/27 03:39:44;;;;;;;9.90;8.90;;;6.90;50.30;;;;;;4979285;28;20219;-64
2024/02/27 03:42:11;;;;;;;10.40;9.40;;;6.70;50.70;;;;;;4987925;28;20732;-62
2024/02/27 03:44:38;;;;;;;10.60;9.50;;;6.80;50.90;;;;;;4996383;28;20218;-63
2024/02/27 03:47:04;;;;;;;10.37;9.27;;;6.90;50.70;;;;;;4989236;28;20206;-62
2024/02/27 03:49:30;;;;;;;10.40;9.27;;;7.00;50.50;;;;;;4988432;28;20650;-63
2024/02/27 03:51:57;;;;;;;10.50;9.50;;;7.10;49.90;;;;;;4994259;28;20222;-63
2024/02/27 03:54:23;;;;;;;11.57;9.40;;;7.10;50.00;;;;;;4990693;28;20226;-64
2024/02/27 03:56:50;;;;;;;10.70;9.60;;;6.90;50.80;;;;;;4988681;28;20284;-63
2024/02/27 03:59:17;;;;;;;10.07;9.07;;;6.90;51.20;;;;;;4989046;28;20316;-63
2024/02/27 04:01:43;;;;;;;9.60;8.67;;;6.80;51.40;;;;;;4993662;28;20266;-62
2024/02/27 04:04:10;;;;;;;10.43;9.50;;;6.80;51.30;;;;;;4981325;28;20288;-63
2024/02/27 04:06:36;;;;;;;12.43;9.60;;;6.80;51.50;;;;;;4986892;28;20202;-62
2024/02/27 04:09:03;;;;;;;11.33;9.87;;;6.70;51.30;;;;;;4987101;28;20251;-63
2024/02/27 04:11:30;;;;;;;10.50;9.37;;;6.80;51.30;;;;;;4993884;28;20745;-64
2024/02/27 04:13:57;;;;;;;10.47;9.23;;;6.70;51.10;;;;;;4978581;28;20207;-62
2024/02/27 04:16:23;;;;;;;10.70;9.60;;;6.70;51.20;;;;;;4987240;28;20229;-63
2024/02/27 04:18:50;;;;;;;11.20;10.00;;;6.70;51.50;;;;;;4986894;28;20218;-63
2024/02/27 04:21:17;;;;;;;10.70;9.53;;;6.70;51.80;;;;;;4982817;28;20273;-62
2024/02/27 04:23:44;;;;;;;11.47;10.37;;;6.70;51.60;;;;;;4989255;28;20214;-63
2024/02/27 04:26:11;;;;;;;10.17;9.27;;;6.70;51.70;;;;;;4985198;28;20231;-64
2024/02/27 04:28:37;;;;;;;10.73;9.67;;;6.70;51.70;;;;;;4995249;28;20210;-63
2024/02/27 04:31:04;;;;;;;11.13;9.83;;;6.60;51.70;;;;;;4986627;28;20223;-63
2024/02/27 04:33:30;;;;;;;11.37;9.13;;;6.60;52.00;;;;;;4998513;28;20284;-62
2024/02/27 04:35:57;;;;;;;10.77;9.67;;;6.60;52.00;;;;;;4989134;28;20271;-64
2024/02/27 04:38:23;;;;;;;12.17;10.43;;;6.70;51.80;;;;;;4989030;28;20257;-64
2024/02/27 04:40:50;;;;;;;11.37;10.27;;;6.70;52.40;;;;;;4984213;28;20227;-63
2024/02/27 04:43:16;;;;;;;11.23;10.13;;;6.70;51.70;;;;;;4986211;28;20206;-63
2024/02/27 04:45:43;;;;;;;12.10;9.67;;;6.70;51.80;;;;;;4987928;28;20242;-63
2024/02/27 04:48:10;;;;;;;10.60;9.50;;;6.50;52.10;;;;;;4991292;28;20587;-63
2024/02/27 04:50:36;;;;;;;11.10;10.00;;;6.50;51.80;;;;;;4993425;28;20572;-62
2024/02/27 04:53:02;;;;;;;11.83;10.33;;;6.40;52.30;;;;;;4994042;28;20329;-63
2024/02/27 04:55:30;;;;;;;11.20;10.00;;;6.50;52.50;;;;;;4986385;28;20288;-63
2024/02/27 04:57:57;;;;;;;11.27;10.07;;;6.50;52.20;;;;;;4977883;28;20602;-63
2024/02/27 05:00:24;;;;;;;11.53;10.30;;;6.50;52.20;;;;;;4980025;28;20510;-62
2024/02/27 05:02:50;;;;;;;10.67;9.67;;;6.50;52.30;;;;;;4978225;28;20266;-63
2024/02/27 05:05:17;;;;;;;11.00;9.87;;;6.60;52.50;;;;;;4982340;28;20262;-63
2024/02/27 05:07:43;;;;;;;10.23;9.23;;;6.50;52.50;;;;;;4979697;28;20637;-63
2024/02/27 05:10:10;;;;;;;11.00;9.90;;;6.60;52.40;;;;;;4981307;28;20231;-63
2024/02/27 05:12:36;;;;;;;13.07;10.13;;;6.60;52.10;;;;;;4991158;28;20709;-62
2024/02/27 05:15:03;;;;;;;12.67;10.80;;;6.50;52.50;;;;;;4992635;28;20351;-64
2024/02/27 05:17:29;;;;;;;12.40;10.73;;;6.40;52.70;;;;;;4986168;28;20640;-64
2024/02/27 05:19:56;;;;;;;10.57;9.53;;;6.40;53.10;;;;;;4992235;28;20566;-63
2024/02/27 05:22:22;;;;;;;13.00;11.37;;;6.50;52.80;;;;;;4982566;28;20238;-63
2024/02/27 05:24:49;;;;;;;13.20;11.23;;;6.60;52.60;;;;;;4982452;28;20622;-64
2024/02/27 05:27:17;;;;;;;12.83;10.50;;;6.50;52.50;;;;;;4989993;28;20270;-63
2024/02/27 05:29:44;;;;;;;12.60;11.27;;;6.50;52.80;;;;;;4984411;28;20249;-64
2024/02/27 05:32:11;;;;;;;11.47;10.23;;;6.50;52.90;;;;;;4978868;28;20227;-63
2024/02/27 05:34:37;;;;;;;15.53;12.87;;;6.50;53.30;;;;;;4986517;28;20287;-63
2024/02/27 05:37:04;;;;;;;13.73;10.97;;;6.50;53.60;;;;;;4984235;28;20280;-64
2024/02/27 05:39:31;;;;;;;12.93;10.80;;;6.60;53.30;;;;;;4983304;28;20211;-64
2024/02/27 05:41:59;;;;;;;11.90;10.60;;;6.70;53.10;;;;;;4997639;28;20614;-63
2024/02/27 05:44:25;;;;;;;12.73;11.07;;;6.60;53.30;;;;;;4986269;28;20217;-63
2024/02/27 05:46:52;;;;;;;12.87;11.23;;;6.50;53.50;;;;;;4986953;28;20284;-63
2024/02/27 05:49:18;;;;;;;12.27;10.80;;;6.60;53.70;;;;;;4984311;28;20223;-65
2024/02/27 05:51:45;;;;;;;13.37;10.60;;;6.50;53.40;;;;;;4986177;28;20651;-63
2024/02/27 05:54:11;;;;;;;12.33;11.07;;;6.50;53.80;;;;;;4982467;28;20227;-63
2024/02/27 05:56:38;;;;;;;13.00;11.30;;;6.50;53.80;;;;;;4985885;28;20230;-63
2024/02/27 05:59:04;;;;;;;14.30;12.00;;;6.50;54.00;;;;;;4998784;28;20241;-62
2024/02/27 06:01:31;;;;;;;15.07;12.77;;;6.50;54.10;;;;;;4981055;28;20258;-64
2024/02/27 06:03:58;;;;;;;15.37;11.20;;;6.40;54.30;;;;;;4992999;28;20603;-63
2024/02/27 06:06:24;;;;;;;13.27;11.37;;;6.40;54.20;;;;;;4984812;28;20202;-64
2024/02/27 06:08:50;;;;;;;14.43;11.47;;;6.40;54.50;;;;;;4985244;28;20260;-63
2024/02/27 06:11:17;;;;;;;13.50;11.57;;;6.30;54.30;;;;;;4981650;28;20219;-62
2024/02/27 06:13:44;;;;;;;13.67;11.53;;;6.30;54.50;;;;;;4979557;28;20785;-65
2024/02/27 06:16:11;;;;;;;15.50;11.83;;;6.30;54.80;;;;;;4992623;28;20265;-65
2024/02/27 06:18:41;;;;;;;14.17;12.17;;;6.40;54.60;;;;;;4986404;28;20680;-64
2024/02/27 06:23:53;;;;;;;16.10;12.43;;;6.50;54.10;;;;;;4984410;28;20281;-64
2024/02/27 06:26:20;;;;;;;15.70;12.27;;;6.50;53.80;;;;;;4984592;28;20620;-64
2024/02/27 06:28:47;;;;;;;18.27;13.40;;;6.40;53.90;;;;;;4988376;28;20707;-64
2024/02/27 06:31:14;;;;;;;16.40;13.60;;;6.30;54.10;;;;;;4981264;28;20577;-65
2024/02/27 06:33:40;;;;;;;16.23;13.43;;;6.20;54.00;;;;;;4973303;28;20236;-64
2024/02/27 06:36:07;;;;;;;18.20;13.60;;;6.30;54.30;;;;;;4984765;28;20255;-65
2024/02/27 06:38:33;;;;;;;17.03;12.90;;;6.30;54.20;;;;;;4980176;28;20210;-64
2024/02/27 06:41:00;;;;;;;15.40;12.53;;;6.20;54.30;;;;;;4977276;28;20214;-64
2024/02/27 06:43:26;;;;;;;17.67;13.77;;;6.20;54.50;;;;;;4989000;28;20685;-65
2024/02/27 06:45:54;;;;;;;15.97;13.53;;;6.40;54.50;;;;;;4985099;28;20292;-63
2024/02/27 06:48:21;;;;;;;15.17;12.77;;;6.60;54.40;;;;;;4978075;28;20573;-64
2024/02/27 06:50:49;;;;;;;16.87;14.13;;;6.60;54.10;;;;;;4989244;28;20226;-64
2024/02/27 06:53:16;;;;;;;16.13;14.03;;;6.60;54.40;;;;;;4973617;28;20239;-64
2024/02/27 06:55:42;;;;;;;16.27;13.23;;;6.60;54.10;;;;;;4980312;28;20255;-64
2024/02/27 06:58:09;;;;;;;21.03;14.10;;;6.60;54.20;;;;;;4979250;28;20234;-63
2024/02/27 07:00:35;;;;;;;18.87;14.43;;;6.70;54.00;;;;;;4976225;28;20315;-64
2024/02/27 07:03:02;;;;;;;19.07;14.10;;;6.60;54.40;;;;;;4983916;28;20771;-64
2024/02/27 07:05:29;;;;;;;20.53;13.73;;;6.60;54.30;;;;;;4971465;28;20235;-64
2024/02/27 07:07:56;;;;;;;20.57;14.73;;;6.50;54.40;;;;;;4987246;28;20216;-64
2024/02/27 07:10:22;;;;;;;18.70;14.90;;;6.50;54.80;;;;;;4984357;28;20206;-65
2024/02/27 07:12:49;;;;;;;18.07;14.57;;;6.50;54.90;;;;;;4988486;28;20320;-64
2024/02/27 07:15:15;;;;;;;19.20;14.67;;;6.60;54.70;;;;;;4982181;28;20261;-63
2024/02/27 07:17:42;;;;;;;19.90;14.60;;;6.60;54.80;;;;;;4982757;28;20214;-67
2024/02/27 07:20:09;;;;;;;20.47;15.87;;;6.60;54.80;;;;;;4980726;28;20586;-64
2024/02/27 07:22:36;;;;;;;20.20;15.30;;;6.60;54.90;;;;;;4982769;28;20659;-63
2024/02/27 07:25:02;;;;;;;19.47;15.10;;;6.70;55.20;;;;;;4995242;28;20253;-64
2024/02/27 07:27:29;;;;;;;19.47;14.57;;;6.60;55.00;;;;;;4984360;28;20366;-64
2024/02/27 07:29:55;;;;;;;18.63;14.37;;;6.60;55.10;;;;;;4983174;28;20237;-66
2024/02/27 07:32:22;;;;;;;19.67;14.40;;;6.70;55.20;;;;;;4988180;28;20671;-63
2024/02/27 07:34:48;;;;;;;20.87;15.70;;;6.80;55.00;;;;;;4981683;28;20269;-64
2024/02/27 07:37:15;;;;;;;17.47;13.80;;;6.90;54.60;;;;;;4989113;28;20261;-64
2024/02/27 07:39:41;;;;;;;18.43;14.63;;;6.90;54.70;;;;;;4990114;28;20306;-64
2024/02/27 07:42:08;;;;;;;19.43;14.73;;;6.90;54.80;;;;;;4982174;28;20234;-66
2024/02/27 07:44:34;;;;;;;20.70;15.43;;;7.00;54.70;;;;;;4978882;28;20254;-65
2024/02/27 07:47:01;;;;;;;18.97;14.70;;;6.90;54.80;;;;;;4986835;28;20203;-64
2024/02/27 07:49:27;;;;;;;19.47;14.40;;;7.00;54.40;;;;;;4981950;28;20203;-64
2024/02/27 07:51:54;;;;;;;19.13;15.03;;;6.80;54.50;;;;;;4989090;28;20261;-64
2024/02/27 07:54:20;;;;;;;17.23;14.03;;;6.80;55.10;;;;;;4982924;28;20620;-64
2024/02/27 07:56:47;;;;;;;21.40;15.47;;;6.90;55.40;;;;;;4982120;28;20785;-66
2024/02/27 07:59:14;;;;;;;20.27;15.00;;;7.10;54.60;;;;;;4980390;28;20713;-67
2024/02/27 08:01:40;;;;;;;21.03;14.93;;;7.20;54.20;;;;;;4971770;28;20234;-64
2024/02/27 08:04:07;;;;;;;19.50;15.40;;;7.20;54.30;;;;;;4984807;28;20215;-64
2024/02/27 08:06:33;;;;;;;17.57;13.93;;;7.30;53.50;;;;;;4983767;28;20203;-64
2024/02/27 08:09:00;;;;;;;19.63;15.23;;;7.10;53.30;;;;;;4974307;28;20600;-64
2024/02/27 08:11:26;;;;;;;21.67;15.67;;;7.10;53.80;;;;;;4975260;28;20779;-64
2024/02/27 08:13:53;;;;;;;19.03;14.87;;;7.10;53.30;;;;;;4979367;28;20210;-64
2024/02/27 08:16:19;;;;;;;21.43;15.13;;;7.20;54.00;;;;;;4968283;28;20628;-66
2024/02/27 08:18:46;;;;;;;18.90;15.53;;;7.20;53.60;;;;;;4951086;28;20240;-64
2024/02/27 08:21:13;;;;;;;20.67;15.77;;;7.20;53.50;;;;;;4957523;28;20314;-64
2024/02/27 08:23:39;;;;;;;19.87;14.97;;;7.10;52.90;;;;;;4961833;28;20227;-63
2024/02/27 08:26:06;;;;;;;19.73;15.63;;;7.20;53.60;;;;;;4952588;28;20204;-67
2024/02/27 08:31:17;;;;;;;21.87;16.30;;;7.30;53.20;;;;;;5163506;23;20374;-61
2024/02/27 08:33:43;;;;;;;20.10;15.70;;;7.30;53.50;;;;;;4917205;28;20212;-63
2024/02/27 08:36:10;;;;;;;21.20;15.67;;;7.40;53.50;;;;;;4945912;28;20702;-63
2024/02/27 08:38:37;;;;;;;26.03;15.00;;;7.40;53.10;;;;;;4958806;28;20295;-63
2024/02/27 08:41:03;;;;;;;21.57;15.33;;;7.40;52.80;;;;;;4959640;28;20522;-63
2024/02/27 08:43:30;;;;;;;21.07;15.97;;;7.20;53.10;;;;;;4953285;28;20212;-63
2024/02/27 08:45:56;;;;;;;22.07;15.57;;;7.20;53.10;;;;;;4953697;28;20212;-64
2024/02/27 08:48:23;;;;;;;19.90;14.83;;;7.20;53.20;;;;;;4946194;28;20575;-64
2024/02/27 08:50:49;;;;;;;22.10;16.00;;;7.20;53.50;;;;;;4955549;28;20279;-64
2024/02/27 08:53:16;;;;;;;18.77;15.87;;;7.30;53.00;;;;;;4949734;28;20235;-63
2024/02/27 08:55:42;;;;;;;18.37;14.93;;;7.30;53.60;;;;;;4946604;28;20362;-64
2024/02/27 08:58:09;;;;;;;19.53;14.57;;;7.50;52.90;;;;;;4945498;28;20760;-64
2024/02/27 09:00:36;;;;;;;21.53;14.50;;;7.40;52.30;;;;;;4959680;28;20211;-64
2024/02/27 09:03:01;;;;;;;18.73;14.67;;;7.40;52.60;;;;;;4955284;28;20729;-63
2024/02/27 09:05:28;;;;;;;20.63;15.60;;;7.40;52.30;;;;;;4944950;28;20216;-64
2024/02/27 09:07:55;;;;;;;21.97;15.37;;;7.50;52.40;;;;;;4951607;28;20204;-64
2024/02/27 09:10:21;;;;;;;19.30;14.97;;;7.50;52.40;;;;;;4953853;28;20245;-64
2024/02/27 09:12:48;;;;;;;19.50;14.57;;;7.40;52.60;;;;;;4953947;28;20236;-64
2024/02/27 09:15:15;;;;;;;17.13;13.77;;;7.60;52.50;;;;;;4953281;28;20209;-63
2024/02/27 09:17:42;;;;;;;16.83;14.10;;;7.60;52.20;;;;;;4953012;28;20315;-64
2024/02/27 09:20:08;;;;;;;24.13;15.27;;;7.70;52.00;;;;;;4949676;28;20312;-63
2024/02/27 09:22:35;;;;;;;18.97;14.83;;;7.90;51.30;;;;;;4954299;28;20236;-64
2024/02/27 09:25:01;;;;;;;16.90;14.10;;;7.80;51.40;;;;;;4955898;28;20236;-64
2024/02/27 09:27:28;;;;;;;19.90;15.07;;;7.60;51.90;;;;;;4956524;28;20208;-64
2024/02/27 09:29:54;;;;;;;19.47;15.37;;;7.60;51.80;;;;;;4952418;28;20587;-64
2024/02/27 09:32:21;;;;;;;18.13;14.17;;;7.70;52.00;;;;;;4949478;28;20314;-64
2024/02/27 09:34:49;;;;;;;19.57;15.23;;;7.60;52.10;;;;;;4963293;28;20216;-64
2024/02/27 09:37:15;;;;;;;20.83;14.47;;;7.70;52.60;;;;;;4957444;28;20234;-64
2024/02/27 09:39:42;;;;;;;18.60;14.57;;;7.60;51.90;;;;;;4951677;28;20217;-64
2024/02/27 09:42:10;;;;;;;18.20;14.00;;;7.50;52.00;;;;;;4959065;28;20264;-64
2024/02/27 09:44:36;;;;;;;20.30;14.80;;;7.60;52.40;;;;;;4955074;28;20224;-63
2024/02/27 09:47:03;;;;;;;21.80;14.87;;;7.50;52.40;;;;;;4950297;28;20256;-64
2024/02/27 09:49:29;;;;;;;20.00;15.00;;;7.60;52.50;;;;;;4953417;28;20279;-64
2024/02/27 09:51:56;;;;;;;28.80;15.40;;;7.60;52.30;;;;;;4962717;28;20239;-64
2024/02/27 09:54:22;;;;;;;17.57;14.23;;;7.60;52.20;;;;;;4954441;28;20271;-64
2024/02/27 09:56:49;;;;;;;21.53;15.57;;;7.70;52.10;;;;;;4953615;28;20225;-63
2024/02/27 09:59:15;;;;;;;19.63;14.70;;;7.60;51.80;;;;;;4958567;28;20686;-64
2024/02/27 10:01:42;;;;;;;18.47;14.23;;;7.60;52.20;;;;;;4966236;28;20314;-64
2024/02/27 10:04:08;;;;;;;22.67;15.43;;;7.70;52.60;;;;;;4957796;28;20269;-64
2024/02/27 10:06:35;;;;;;;19.03;14.83;;;7.80;52.00;;;;;;4950589;28;20212;-64
2024/02/27 10:09:02;;;;;;;18.37;14.20;;;7.70;52.10;;;;;;4947485;28;20634;-64
2024/02/27 10:11:28;;;;;;;19.43;14.07;;;7.70;52.30;;;;;;4953477;28;20747;-64
2024/02/27 10:13:55;;;;;;;18.07;13.63;;;7.70;52.60;;;;;;4949453;28;20299;-63
2024/02/27 10:16:22;;;;;;;18.93;13.40;;;7.70;52.40;;;;;;4958631;28;20233;-63
2024/02/27 10:18:48;;;;;;;17.17;12.53;;;7.70;51.80;;;;;;4957536;28;20581;-63
2024/02/27 10:21:15;;;;;;;16.03;13.33;;;7.90;51.90;;;;;;4962215;28;20236;-63
2024/02/27 10:23:41;;;;;;;16.27;13.53;;;8.00;51.50;;;;;;4953057;28;20212;-63
2024/02/27 10:26:09;;;;;;;18.60;13.47;;;7.90;51.10;;;;;;4947889;28;20223;-63
2024/02/27 10:28:35;;;;;;;16.30;13.03;;;7.90;51.60;;;;;;4929881;28;20220;-63
2024/02/27 10:31:02;;;;;;;16.40;11.83;;;7.80;51.60;;;;;;4948918;28;20307;-63
2024/02/27 10:33:29;;;;;;;14.20;12.43;;;7.80;51.40;;;;;;4944236;28;20220;-63
2024/02/27 10:35:55;;;;;;;18.77;13.60;;;7.80;51.60;;;;;;4949441;28;20692;-63
2024/02/27 10:38:22;;;;;;;15.40;12.67;;;7.90;51.70;;;;;;4948118;28;20259;-63
2024/02/27 10:40:49;;;;;;;17.73;12.17;;;7.90;51.80;;;;;;4945338;28;20755;-63
2024/02/27 10:43:15;;;;;;;15.37;12.07;;;7.80;51.70;;;;;;4955817;28;20231;-64
2024/02/27 10:45:42;;;;;;;16.57;12.37;;;7.80;51.70;;;;;;4943346;28;20295;-64
2024/02/27 10:48:08;;;;;;;17.63;12.57;;;7.90;51.50;;;;;;4933505;28;20688;-64
2024/02/27 10:50:35;;;;;;;17.90;13.87;;;7.90;51.60;;;;;;4945182;28;20215;-63
2024/02/27 10:53:02;;;;;;;19.57;13.90;;;7.90;51.80;;;;;;4946919;28;20239;-63
2024/02/27 10:55:28;;;;;;;18.13;14.23;;;8.00;51.90;;;;;;4959198;28;20220;-64
2024/02/27 10:57:59;;;;;;;18.43;14.17;;;8.00;51.80;;;;;;4943466;28;20291;-63
2024/02/27 11:00:26;;;;;;;16.90;13.30;;;8.10;51.40;;;;;;4941250;28;20737;-63
2024/02/27 11:02:53;;;;;;;15.60;12.20;;;8.10;51.80;;;;;;4940614;28;20646;-63
2024/02/27 11:05:19;;;;;;;16.30;12.87;;;8.10;51.30;;;;;;4950877;28;20214;-64
2024/02/27 11:07:46;;;;;;;16.03;11.73;;;8.10;51.10;;;;;;4939578;28;20212;-63
2024/02/27 11:10:12;;;;;;;14.87;12.40;;;8.30;51.20;;;;;;4949622;28;20647;-63
2024/02/27 11:12:39;;;;;;;15.70;12.27;;;8.20;51.10;;;;;;4951525;28;20235;-63
2024/02/27 11:15:05;;;;;;;15.73;12.17;;;8.30;50.90;;;;;;4960711;28;20222;-63
2024/02/27 11:17:32;;;;;;;13.77;11.17;;;8.30;50.80;;;;;;4951674;28;20232;-62
2024/02/27 11:19:58;;;;;;;16.30;11.73;;;8.30;51.00;;;;;;4951254;28;20209;-63
2024/02/27 11:22:25;;;;;;;14.73;11.83;;;8.30;50.80;;;;;;4943349;28;20584;-63
2024/02/27 11:24:52;;;;;;;15.17;11.70;;;8.30;50.50;;;;;;4958288;28;20220;-65
2024/02/27 11:27:18;;;;;;;15.70;11.60;;;8.30;50.50;;;;;;4957232;28;20201;-66
2024/02/27 11:29:45;;;;;;;15.43;11.20;;;8.30;50.60;;;;;;4945090;28;20211;-61
2024/02/27 11:32:12;;;;;;;16.43;11.47;;;8.50;50.70;;;;;;4950973;28;20291;-62
2024/02/27 11:34:38;;;;;;;14.47;10.83;;;8.70;50.10;;;;;;4947679;28;20624;-64
2024/02/27 11:37:05;;;;;;;14.73;11.47;;;8.80;49.90;;;;;;4948536;28;20225;-63
2024/02/27 11:39:31;;;;;;;12.83;10.43;;;9.10;49.20;;;;;;4954148;28;20218;-63
2024/02/27 11:41:58;;;;;;;14.37;11.30;;;9.10;48.80;;;;;;4948160;28;20232;-63
2024/02/27 11:44:24;;;;;;;12.97;11.17;;;9.20;49.20;;;;;;4944410;28;20577;-63
2024/02/27 11:46:55;;;;;;;13.50;11.10;;;9.30;48.50;;;;;;4950376;28;20264;-63
2024/02/27 11:49:21;;;;;;;14.70;11.73;;;9.40;48.50;;;;;;4956268;28;20227;-62
2024/02/27 11:51:48;;;;;;;15.37;11.73;;;9.40;48.70;;;;;;4953169;28;20255;-62
2024/02/27 11:54:14;;;;;;;16.73;12.17;;;9.90;46.80;;;;;;4950221;28;20233;-62
2024/02/27 11:56:41;;;;;;;13.50;10.60;;;10.40;44.90;;;;;;4949521;28;20243;-63
2024/02/27 11:59:07;;;;;;;13.97;11.03;;;10.30;44.80;;;;;;4951777;28;20210;-62
2024/02/27 12:01:34;;;;;;;16.27;11.53;;;10.30;44.80;;;;;;4954242;28;20239;-63
2024/02/27 12:04:00;;;;;;;16.20;12.00;;;10.40;44.90;;;;;;4953214;28;20256;-63
2024/02/27 12:06:27;;;;;;;14.23;11.73;;;10.50;44.30;;;;;;4960332;28;20220;-64
2024/02/27 12:08:53;;;;;;;14.47;11.33;;;10.90;43.20;;;;;;4955991;28;20207;-63
2024/02/27 12:11:20;;;;;;;14.93;11.83;;;10.70;43.70;;;;;;4952035;28;20723;-63
2024/02/27 12:13:46;;;;;;;15.20;12.00;;;10.30;44.20;;;;;;4953654;28;20222;-61
2024/02/27 12:16:13;;;;;;;15.70;12.27;;;10.10;45.10;;;;;;4952819;28;20204;-64
2024/02/27 12:18:40;;;;;;;12.37;10.97;;;10.70;44.00;;;;;;4954820;28;20638;-63
2024/02/27 12:21:06;;;;;;;15.07;11.70;;;11.30;42.10;;;;;;4946141;28;20224;-63
2024/02/27 12:23:33;;;;;;;16.53;11.57;;;11.30;41.70;;;;;;4942179;28;20220;-62
2024/02/27 12:26:00;;;;;;;13.97;11.63;;;10.70;43.90;;;;;;4949105;28;20236;-64
2024/02/27 12:28:26;;;;;;;14.80;11.43;;;10.50;44.00;;;;;;4953503;28;20735;-64
2024/02/27 12:30:53;;;;;;;24.50;16.20;;;10.60;43.40;;;;;;4962182;28;20274;-63
2024/02/27 12:33:20;;;;;;;15.43;11.93;;;11.20;42.60;;;;;;4962675;28;20727;-63
2024/02/27 12:35:46;;;;;;;29.73;19.40;;;11.30;42.40;;;;;;4955117;28;20212;-63
2024/02/27 12:38:13;;;;;;;18.70;13.00;;;11.20;42.70;;;;;;4952098;28;20318;-63
2024/02/27 12:40:39;;;;;;;14.00;10.83;;;11.00;42.90;;;;;;4944491;28;20247;-62
2024/02/27 12:43:05;;;;;;;14.67;11.40;;;10.70;43.50;;;;;;4956868;28;20239;-63
2024/02/27 12:45:31;;;;;;;12.53;10.37;;;10.50;44.10;;;;;;4961804;28;20205;-63